Time;durP1;ratioP1;P1;durP2;ratioP2;P2;SDS_P1;SDS_P2;PMS_P1;PMS_P2;Temp;Humidity;BMP_temperature;BMP_pressure;BME280_temperature;BME280_humidity;BME280_pressure;Samples;Min_cycle;Max_cycle;Signal;HPM_P1;HPM_P2
2021/10/23 00:01:40;;;;;;;2.87;1.50;;;10.70;32.60;;;;;;10312706;28;20236;-80
2021/10/23 00:06:45;;;;;;;2.67;1.47;;;10.70;32.70;;;;;;10310425;28;20238;-80
2021/10/23 00:11:48;;;;;;;5.13;2.00;;;10.60;32.70;;;;;;10317019;28;20235;-80
2021/10/23 00:16:51;;;;;;;2.97;1.60;;;10.60;32.70;;;;;;10317730;28;20235;-80
2021/10/23 00:21:56;;;;;;;3.13;1.43;;;10.70;32.80;;;;;;10314223;28;20237;-80
2021/10/23 00:26:59;;;;;;;2.77;1.60;;;10.70;33.00;;;;;;10317991;28;20230;-80
2021/10/23 00:32:02;;;;;;;3.40;1.60;;;10.70;32.90;;;;;;10311517;28;20241;-80
2021/10/23 00:37:07;;;;;;;3.27;1.40;;;10.70;32.90;;;;;;10310665;28;20243;-80
2021/10/23 00:42:10;;;;;;;4.90;1.70;;;10.70;32.90;;;;;;10315246;28;20242;-80
2021/10/23 00:47:16;;;;;;;2.43;1.43;;;10.70;32.80;;;;;;10316975;28;20253;-80
2021/10/23 00:52:22;;;;;;;3.43;1.60;;;10.70;32.90;;;;;;10309249;28;20231;-80
2021/10/23 00:57:25;;;;;;;3.23;1.60;;;10.80;33.10;;;;;;10313957;28;20249;-80
2021/10/23 01:02:29;;;;;;;3.50;1.70;;;10.80;32.90;;;;;;10311355;28;20247;-80
2021/10/23 01:07:35;;;;;;;4.13;1.57;;;10.80;32.90;;;;;;10316584;28;20313;-80
2021/10/23 01:12:41;;;;;;;2.87;1.60;;;10.90;33.00;;;;;;10327845;28;20287;-80
2021/10/23 01:17:44;;;;;;;3.50;1.73;;;10.90;32.90;;;;;;10333767;28;20242;-80
2021/10/23 01:22:50;;;;;;;3.67;1.60;;;10.90;32.70;;;;;;10322266;28;20243;-80
2021/10/23 01:27:54;;;;;;;5.27;1.67;;;10.90;32.80;;;;;;10333396;28;20245;-80
2021/10/23 01:32:57;;;;;;;2.37;1.60;;;10.90;32.90;;;;;;10322406;28;20227;-80
2021/10/23 01:38:02;;;;;;;2.87;1.70;;;10.90;32.70;;;;;;10316853;28;20393;-80
2021/10/23 01:43:05;;;;;;;2.60;1.70;;;10.90;32.90;;;;;;10313535;28;20240;-80
2021/10/23 01:48:08;;;;;;;2.90;1.60;;;10.80;32.90;;;;;;10317887;28;20246;-80
2021/10/23 01:53:13;;;;;;;3.47;1.70;;;10.80;33.00;;;;;;10321682;28;20235;-80
2021/10/23 01:58:16;;;;;;;3.10;1.50;;;10.80;33.00;;;;;;10328064;28;20232;-80
2021/10/23 02:03:19;;;;;;;2.87;1.50;;;10.80;33.70;;;;;;10322390;28;20235;-80
2021/10/23 02:08:24;;;;;;;1.53;1.43;;;10.80;33.80;;;;;;10328067;28;20246;-80
2021/10/23 02:13:27;;;;;;;4.17;1.70;;;10.80;33.10;;;;;;10316032;28;20688;-80
2021/10/23 02:18:30;;;;;;;2.43;1.53;;;10.80;33.00;;;;;;10320481;28;20239;-80
2021/10/23 02:23:36;;;;;;;2.47;1.50;;;10.70;33.00;;;;;;10325094;28;20730;-80
2021/10/23 02:28:39;;;;;;;2.37;1.43;;;10.70;33.10;;;;;;10323214;28;20245;-80
2021/10/23 02:33:42;;;;;;;2.20;1.50;;;10.70;33.00;;;;;;10319156;28;20235;-80
2021/10/23 02:38:48;;;;;;;4.27;1.83;;;10.70;33.10;;;;;;10325063;28;20228;-80
2021/10/23 02:43:51;;;;;;;3.97;1.80;;;10.70;33.20;;;;;;10319320;28;20621;-80
2021/10/23 02:48:54;;;;;;;3.93;1.47;;;10.70;33.20;;;;;;10317136;28;20249;-80
2021/10/23 02:53:59;;;;;;;4.07;1.50;;;10.70;33.20;;;;;;10316767;28;20700;-80
2021/10/23 02:59:02;;;;;;;3.27;1.67;;;10.70;33.50;;;;;;10321068;28;20240;-80
2021/10/23 03:04:06;;;;;;;5.37;1.50;;;10.70;33.30;;;;;;10323014;28;21406;-80
2021/10/23 03:09:10;;;;;;;2.27;1.40;;;10.70;33.20;;;;;;10314926;28;21102;-80
2021/10/23 03:14:13;;;;;;;2.63;1.80;;;10.70;33.50;;;;;;10317937;28;20296;-80
2021/10/23 03:19:17;;;;;;;3.83;1.80;;;10.70;33.40;;;;;;10317236;28;20230;-80
2021/10/23 03:24:21;;;;;;;3.47;1.80;;;10.70;33.50;;;;;;10313963;28;20605;-79
2021/10/23 03:29:24;;;;;;;4.10;1.80;;;10.60;33.70;;;;;;10313805;28;20828;-79
2021/10/23 03:34:28;;;;;;;3.47;1.60;;;10.60;33.60;;;;;;10313779;28;20245;-80
2021/10/23 03:39:32;;;;;;;2.77;1.53;;;10.50;33.80;;;;;;10315364;28;20655;-79
2021/10/23 03:44:35;;;;;;;3.20;1.53;;;10.50;34.00;;;;;;10310613;28;20314;-80
2021/10/23 03:49:41;;;;;;;4.47;1.80;;;10.60;34.00;;;;;;10307977;28;20257;-80
2021/10/23 03:54:45;;;;;;;2.87;1.70;;;10.70;34.00;;;;;;10323211;28;20227;-80
2021/10/23 03:59:48;;;;;;;2.90;1.53;;;10.70;34.00;;;;;;10314950;28;20236;-79
2021/10/23 04:04:52;;;;;;;3.93;1.70;;;10.70;33.80;;;;;;10314712;28;20235;-80
2021/10/23 04:09:58;;;;;;;1.87;1.60;;;10.70;33.80;;;;;;10315032;28;20238;-80
2021/10/23 04:15:01;;;;;;;2.00;1.47;;;10.70;33.90;;;;;;10317235;28;20237;-80
2021/10/23 04:20:05;;;;;;;3.00;1.50;;;10.70;33.80;;;;;;10308305;28;20327;-80
2021/10/23 04:25:10;;;;;;;2.77;1.27;;;10.80;33.90;;;;;;10316058;28;20241;-80
2021/10/23 04:30:13;;;;;;;4.37;1.90;;;10.80;34.10;;;;;;10310698;28;20912;-80
2021/10/23 04:35:17;;;;;;;2.70;1.80;;;10.80;33.90;;;;;;10314373;28;20223;-80
2021/10/23 04:40:21;;;;;;;3.20;1.50;;;10.80;33.80;;;;;;10323846;28;20239;-80
2021/10/23 04:45:24;;;;;;;3.23;1.60;;;10.90;34.00;;;;;;10324946;28;20245;-80
2021/10/23 04:50:28;;;;;;;4.43;1.67;;;10.80;33.90;;;;;;10318507;28;20230;-80
2021/10/23 04:55:32;;;;;;;3.87;1.97;;;10.80;33.90;;;;;;10319244;28;20227;-80
2021/10/23 05:00:35;;;;;;;4.27;1.67;;;10.80;34.10;;;;;;10327000;28;20230;-80
2021/10/23 05:05:39;;;;;;;4.93;2.00;;;10.80;33.90;;;;;;10322870;28;20543;-80
2021/10/23 05:10:43;;;;;;;3.63;2.00;;;10.80;34.10;;;;;;10321985;28;20614;-80
2021/10/23 05:15:46;;;;;;;3.27;1.80;;;10.70;34.20;;;;;;10320974;28;20237;-80
2021/10/23 05:20:50;;;;;;;4.50;2.07;;;10.70;34.00;;;;;;10325541;28;20222;-80
2021/10/23 05:25:54;;;;;;;2.00;1.80;;;10.70;34.20;;;;;;10327374;28;20227;-79
2021/10/23 05:30:57;;;;;;;3.93;2.20;;;10.70;34.50;;;;;;10318581;28;20220;-80
2021/10/23 05:36:01;;;;;;;2.77;2.10;;;10.80;34.40;;;;;;10323464;28;20306;-80
2021/10/23 05:41:05;;;;;;;5.27;2.00;;;10.70;34.20;;;;;;10329033;28;20227;-81
2021/10/23 05:46:08;;;;;;;2.67;1.90;;;10.80;34.60;;;;;;10324204;28;20247;-80
2021/10/23 05:51:12;;;;;;;3.93;2.33;;;10.70;34.40;;;;;;10330114;28;20294;-80
2021/10/23 05:56:16;;;;;;;3.20;1.90;;;10.80;34.60;;;;;;10327240;28;20247;-80
2021/10/23 06:01:19;;;;;;;3.53;1.80;;;10.80;34.80;;;;;;10322098;28;20733;-80
2021/10/23 06:06:23;;;;;;;2.70;1.73;;;10.80;34.60;;;;;;10322906;28;20720;-80
2021/10/23 06:11:29;;;;;;;4.10;2.00;;;10.90;34.50;;;;;;10316238;28;20237;-80
2021/10/23 06:16:32;;;;;;;5.03;2.20;;;10.90;34.60;;;;;;10310311;28;20712;-80
2021/10/23 06:21:35;;;;;;;2.93;2.10;;;11.00;34.60;;;;;;10320328;28;20238;-80
2021/10/23 06:26:40;;;;;;;4.07;2.10;;;11.00;34.50;;;;;;10313277;28;20231;-80
2021/10/23 06:31:43;;;;;;;4.10;2.17;;;11.00;34.70;;;;;;10318838;28;20240;-81
2021/10/23 06:36:46;;;;;;;10.67;2.40;;;11.00;34.50;;;;;;10312493;28;20231;-80
2021/10/23 06:41:51;;;;;;;6.40;2.50;;;11.00;34.60;;;;;;10316844;28;20226;-80
2021/10/23 06:46:54;;;;;;;2.53;2.03;;;11.00;34.80;;;;;;10312667;28;20252;-81
2021/10/23 06:51:57;;;;;;;4.27;2.50;;;10.90;34.60;;;;;;10313668;28;20231;-80
2021/10/23 06:57:01;;;;;;;4.67;2.20;;;10.90;34.70;;;;;;10316395;28;20231;-81
2021/10/23 07:02:25;;;;;;;3.30;2.00;;;10.90;35.00;;;;;;10315273;28;20241;-82
2021/10/23 07:07:28;;;;;;;4.17;2.37;;;10.90;34.80;;;;;;10325593;28;20230;-81
2021/10/23 07:12:33;;;;;;;2.80;2.13;;;10.90;34.80;;;;;;10323286;28;20315;-79
2021/10/23 07:17:36;;;;;;;6.83;4.10;;;11.00;35.20;;;;;;10318582;28;20273;-81
2021/10/23 07:22:40;;;;;;;16.17;11.03;;;11.00;35.00;;;;;;10316278;28;20238;-80
2021/10/23 07:27:44;;;;;;;11.57;8.20;;;11.10;35.00;;;;;;10312249;28;20314;-80
2021/10/23 07:32:48;;;;;;;9.20;5.30;;;11.10;35.20;;;;;;10310685;28;20241;-81
2021/10/23 07:37:51;;;;;;;16.40;10.00;;;11.10;35.10;;;;;;10314605;28;20610;-81
2021/10/23 07:42:56;;;;;;;5.37;3.00;;;11.20;35.00;;;;;;10314556;28;21684;-80
2021/10/23 07:47:59;;;;;;;4.67;2.97;;;11.20;35.10;;;;;;10307252;28;20234;-79
2021/10/23 07:53:03;;;;;;;3.97;2.23;;;11.20;35.20;;;;;;10314525;28;20218;-79
2021/10/23 07:58:08;;;;;;;4.93;2.23;;;11.20;35.50;;;;;;10314470;28;20231;-80
2021/10/23 08:03:11;;;;;;;3.73;2.10;;;11.30;35.90;;;;;;10317993;28;20237;-80
2021/10/23 08:08:15;;;;;;;2.90;2.13;;;11.50;35.90;;;;;;10315120;28;20235;-79
2021/10/23 08:13:19;;;;;;;4.70;2.20;;;11.60;36.00;;;;;;10307398;28;20255;-80
2021/10/23 08:18:23;;;;;;;5.67;2.40;;;11.70;36.20;;;;;;10306493;28;20604;-79
2021/10/23 08:23:28;;;;;;;5.73;2.43;;;11.90;36.30;;;;;;10307581;28;20246;-80
2021/10/23 08:28:37;;;;;;;4.47;2.63;;;12.10;36.10;;;;;;10314583;28;20300;-79
2021/10/23 08:33:40;;;;;;;6.23;3.60;;;12.20;36.40;;;;;;10308067;28;20237;-80
2021/10/23 08:38:44;;;;;;;5.77;3.10;;;12.50;36.30;;;;;;10316065;28;20235;-80
2021/10/23 08:43:49;;;;;;;4.30;3.17;;;12.70;36.00;;;;;;10323988;28;20665;-80
2021/10/23 08:48:54;;;;;;;5.13;3.03;;;12.80;36.10;;;;;;10318819;28;20244;-80
2021/10/23 08:53:58;;;;;;;5.33;2.83;;;12.90;35.80;;;;;;10311906;28;20310;-80
2021/10/23 08:59:02;;;;;;;3.20;2.70;;;13.10;36.00;;;;;;10319518;28;20623;-80
2021/10/23 09:04:06;;;;;;;3.20;2.80;;;13.30;36.10;;;;;;10316565;28;20319;-81
2021/10/23 09:09:10;;;;;;;6.33;3.40;;;13.40;35.90;;;;;;10306618;28;20231;-79
2021/10/23 09:14:31;;;;;;;4.97;2.73;;;13.60;35.40;;;;;;10305743;28;20642;-79
2021/10/23 09:19:40;;;;;;;4.00;2.80;;;13.70;35.30;;;;;;10306120;28;20226;-79
2021/10/23 09:24:43;;;;;;;3.80;2.90;;;13.70;34.70;;;;;;10312177;28;20361;-79
2021/10/23 09:29:54;;;;;;;3.07;2.50;;;13.70;34.40;;;;;;10312474;28;20253;-79
2021/10/23 09:35:10;;;;;;;2.57;2.07;;;13.60;34.70;;;;;;10313506;28;20287;-78
2021/10/23 09:40:20;;;;;;;2.83;2.50;;;13.60;34.70;;;;;;10317806;28;20880;-78
2021/10/23 09:45:24;;;;;;;4.87;2.87;;;13.80;35.20;;;;;;10323019;28;20283;-79
2021/10/23 09:50:27;;;;;;;4.83;2.87;;;13.90;35.00;;;;;;10318675;28;20256;-79
2021/10/23 09:55:32;;;;;;;5.47;2.60;;;14.10;34.90;;;;;;10320844;28;20768;-80
2021/10/23 10:00:38;;;;;;;4.37;2.43;;;14.10;34.40;;;;;;10319165;28;20269;-80
2021/10/23 10:05:41;;;;;;;3.87;2.77;;;14.00;34.20;;;;;;10317750;28;20317;-77
2021/10/23 10:10:46;;;;;;;3.77;2.70;;;14.00;34.40;;;;;;10320460;28;20726;-77
2021/10/23 10:15:52;;;;;;;4.67;2.67;;;14.00;34.40;;;;;;10317018;28;20719;-77
2021/10/23 10:20:57;;;;;;;6.53;2.77;;;14.00;34.70;;;;;;10303945;28;20227;-77
2021/10/23 10:26:31;;;;;;;3.60;2.57;;;14.00;35.10;;;;;;10317113;28;20227;-77
2021/10/23 10:31:52;;;;;;;4.13;2.57;;;14.10;35.40;;;;;;10303317;28;20227;-77
2021/10/23 10:37:42;;;;;;;3.07;2.33;;;14.30;35.20;;;;;;10305960;28;20746;-77
2021/10/23 10:42:51;;;;;;;2.90;2.20;;;14.50;34.70;;;;;;10302570;28;20732;-77
2021/10/23 10:48:12;;;;;;;4.13;2.30;;;14.60;34.10;;;;;;10304255;28;20259;-77
2021/10/23 10:53:18;;;;;;;4.77;2.40;;;14.70;33.80;;;;;;10306115;28;20669;-77
2021/10/23 10:58:40;;;;;;;3.53;2.60;;;14.80;33.80;;;;;;10307136;28;20249;-77
2021/10/23 11:03:47;;;;;;;2.73;1.83;;;14.80;33.70;;;;;;10309870;28;20592;-79
2021/10/23 11:09:30;;;;;;;2.47;1.83;;;14.90;33.00;;;;;;10312209;28;20245;-78
2021/10/23 11:14:35;;;;;;;3.53;2.50;;;15.00;33.40;;;;;;10306008;28;20235;-78
2021/10/23 11:19:42;;;;;;;2.00;1.90;;;15.10;34.00;;;;;;10313679;28;20699;-78
2021/10/23 11:24:47;;;;;;;1.60;1.50;;;15.30;33.20;;;;;;10299496;28;20742;-78
2021/10/23 11:30:05;;;;;;;3.13;1.40;;;15.30;32.70;;;;;;10304379;28;20253;-78
2021/10/23 11:35:10;;;;;;;3.97;1.53;;;15.30;32.40;;;;;;10311540;28;20605;-79
2021/10/23 11:40:14;;;;;;;3.07;1.80;;;15.40;32.50;;;;;;10302104;28;20242;-80
2021/10/23 11:45:19;;;;;;;2.83;1.70;;;15.50;32.50;;;;;;10300886;28;20239;-79
2021/10/23 11:50:40;;;;;;;2.43;1.70;;;15.50;32.60;;;;;;10301242;28;20227;-79
2021/10/23 11:55:46;;;;;;;2.20;2.00;;;15.70;32.80;;;;;;10309717;28;20227;-80
2021/10/23 12:00:59;;;;;;;3.17;2.20;;;15.70;32.60;;;;;;10312868;28;20235;-80
2021/10/23 12:06:15;;;;;;;3.10;2.13;;;15.80;32.80;;;;;;10306789;28;20281;-80
2021/10/23 12:11:20;;;;;;;2.67;2.00;;;15.90;31.90;;;;;;10304339;28;20229;-80
2021/10/23 12:16:40;;;;;;;3.13;1.70;;;15.90;32.00;;;;;;10305157;28;20239;-80
2021/10/23 12:21:49;;;;;;;2.33;1.97;;;16.00;30.60;;;;;;10303678;28;20233;-80
2021/10/23 12:27:07;;;;;;;3.97;2.30;;;16.10;31.20;;;;;;10316554;28;20943;-80
2021/10/23 12:32:12;;;;;;;3.20;2.07;;;16.20;30.60;;;;;;10305783;28;20600;-79
2021/10/23 12:37:30;;;;;;;2.13;1.83;;;16.20;30.60;;;;;;10304130;28;20270;-80
2021/10/23 12:42:35;;;;;;;3.20;2.00;;;16.10;30.10;;;;;;10293637;28;20230;-79
2021/10/23 12:47:38;;;;;;;3.17;2.20;;;15.90;31.10;;;;;;10283950;28;20902;-80
2021/10/23 12:52:43;;;;;;;2.77;2.00;;;15.70;30.70;;;;;;10287750;28;20986;-79
2021/10/23 12:57:46;;;;;;;3.00;2.30;;;15.50;30.50;;;;;;10283412;28;20236;-79
2021/10/23 13:02:50;;;;;;;3.10;2.07;;;15.60;30.80;;;;;;10300247;28;20246;-77
2021/10/23 13:07:55;;;;;;;2.93;2.20;;;15.50;30.80;;;;;;10288252;28;20274;-76
2021/10/23 13:12:59;;;;;;;4.10;2.00;;;15.50;30.40;;;;;;10281926;28;20946;-77
2021/10/23 13:18:02;;;;;;;3.17;2.03;;;15.50;30.80;;;;;;10291408;28;20227;-77
2021/10/23 13:23:07;;;;;;;2.87;2.10;;;15.50;30.60;;;;;;10290157;28;20803;-78
2021/10/23 13:28:10;;;;;;;8.50;2.10;;;15.50;29.90;;;;;;10296745;28;20242;-78
2021/10/23 13:33:14;;;;;;;3.63;1.80;;;15.50;29.70;;;;;;10305551;28;20766;-78
2021/10/23 13:38:19;;;;;;;3.33;1.60;;;15.40;29.90;;;;;;10303899;28;20254;-77
2021/10/23 13:43:22;;;;;;;2.47;1.70;;;15.30;28.80;;;;;;10300219;28;20383;-78
2021/10/23 13:48:26;;;;;;;4.50;1.80;;;15.20;29.70;;;;;;10291758;28;20235;-77
2021/10/23 13:53:30;;;;;;;2.60;1.77;;;15.20;29.90;;;;;;10292991;28;20231;-77
2021/10/23 13:58:33;;;;;;;3.13;1.60;;;15.20;29.40;;;;;;10282277;28;20651;-77
2021/10/23 14:03:41;;;;;;;1.67;1.23;;;15.20;29.40;;;;;;10286932;28;20223;-78
2021/10/23 14:08:46;;;;;;;2.43;1.50;;;15.20;29.70;;;;;;10285263;28;20243;-77
2021/10/23 14:13:49;;;;;;;3.07;1.70;;;15.20;29.30;;;;;;10284233;28;20344;-78
2021/10/23 14:18:54;;;;;;;3.83;1.60;;;15.20;29.10;;;;;;10293440;28;20242;-78
2021/10/23 14:23:58;;;;;;;1.63;1.40;;;15.10;29.10;;;;;;10293180;28;20738;-77
2021/10/23 14:29:03;;;;;;;1.60;1.33;;;15.20;29.20;;;;;;10283228;28;20227;-78
2021/10/23 14:34:06;;;;;;;2.17;1.40;;;15.20;29.30;;;;;;10285750;28;20247;-77
2021/10/23 14:39:11;;;;;;;2.13;1.30;;;15.30;29.40;;;;;;10281229;28;20739;-78
2021/10/23 14:44:14;;;;;;;2.50;1.50;;;15.30;29.20;;;;;;10290450;28;20227;-77
2021/10/23 14:49:17;;;;;;;2.17;1.60;;;15.30;29.30;;;;;;10291021;28;20234;-78
2021/10/23 14:54:22;;;;;;;3.00;1.40;;;15.30;29.40;;;;;;10308131;28;20227;-78
2021/10/23 14:59:25;;;;;;;1.83;1.30;;;15.40;29.30;;;;;;10313996;28;20245;-78
2021/10/23 15:04:29;;;;;;;2.00;1.40;;;15.40;29.50;;;;;;10308143;28;20697;-77
2021/10/23 15:09:33;;;;;;;2.80;1.40;;;15.40;29.40;;;;;;10306059;28;20236;-77
2021/10/23 15:14:37;;;;;;;2.80;1.40;;;15.40;29.00;;;;;;10304561;28;20263;-76
2021/10/23 15:19:40;;;;;;;2.83;1.53;;;15.40;29.40;;;;;;10301827;28;20258;-76
2021/10/23 15:24:45;;;;;;;1.50;1.30;;;15.40;29.40;;;;;;10304119;28;20318;-76
2021/10/23 15:29:48;;;;;;;2.40;1.33;;;15.30;29.10;;;;;;10304446;28;20227;-75
2021/10/23 15:34:51;;;;;;;2.13;1.30;;;15.30;29.40;;;;;;10304887;28;20238;-75
2021/10/23 15:39:56;;;;;;;1.97;1.57;;;15.30;29.40;;;;;;10300217;28;20243;-76
2021/10/23 15:45:00;;;;;;;2.67;1.33;;;15.20;29.20;;;;;;10302831;28;20649;-76
2021/10/23 15:50:04;;;;;;;1.20;1.13;;;15.10;29.20;;;;;;10304379;28;20226;-76
2021/10/23 15:55:09;;;;;;;3.20;1.40;;;15.10;29.40;;;;;;10302416;28;20237;-76
2021/10/23 16:00:13;;;;;;;2.33;1.30;;;15.00;29.50;;;;;;10304192;28;20720;-76
2021/10/23 16:05:16;;;;;;;2.50;1.00;;;14.90;29.70;;;;;;10301058;28;20322;-76
2021/10/23 16:10:21;;;;;;;1.57;1.20;;;14.90;29.70;;;;;;10307533;28;20241;-75
2021/10/23 16:15:24;;;;;;;1.50;1.33;;;14.90;29.80;;;;;;10303352;28;20235;-79
2021/10/23 16:20:28;;;;;;;2.63;2.17;;;14.80;29.80;;;;;;10296238;28;20247;-77
2021/10/23 16:25:33;;;;;;;3.33;3.03;;;14.80;29.80;;;;;;10301697;28;20231;-76
2021/10/23 16:30:36;;;;;;;3.90;3.50;;;14.70;29.80;;;;;;10302321;28;20247;-76
2021/10/23 16:35:39;;;;;;;3.97;2.60;;;14.60;29.90;;;;;;10299043;28;20228;-77
2021/10/23 16:40:44;;;;;;;3.60;3.30;;;14.50;29.90;;;;;;10298168;28;20238;-77
2021/10/23 16:45:47;;;;;;;5.00;4.50;;;14.40;29.90;;;;;;10312222;28;20242;-77
2021/10/23 16:50:50;;;;;;;4.17;3.77;;;14.30;29.90;;;;;;10307210;28;20233;-77
2021/10/23 16:55:55;;;;;;;4.30;3.40;;;14.20;29.90;;;;;;10307549;28;20227;-78
2021/10/23 17:00:58;;;;;;;5.77;3.83;;;14.10;30.00;;;;;;10304033;28;20227;-77
2021/10/23 17:06:02;;;;;;;3.80;3.40;;;13.90;30.00;;;;;;10301107;28;20235;-77
2021/10/23 17:11:06;;;;;;;3.60;3.30;;;13.80;30.00;;;;;;10307948;28;20231;-78
2021/10/23 17:16:10;;;;;;;5.83;4.50;;;13.70;30.10;;;;;;10304165;28;20223;-77
2021/10/23 17:21:13;;;;;;;17.40;14.77;;;13.50;30.30;;;;;;10308344;28;20310;-77
2021/10/23 17:26:18;;;;;;;15.83;13.20;;;13.40;30.70;;;;;;10306398;28;20230;-77
2021/10/23 17:31:21;;;;;;;14.70;11.63;;;13.30;30.60;;;;;;10310229;28;20250;-77
2021/10/23 17:36:25;;;;;;;12.00;10.43;;;13.20;30.50;;;;;;10311156;28;20251;-77
2021/10/23 17:41:29;;;;;;;11.70;10.17;;;13.10;30.40;;;;;;10307790;28;20235;-77
2021/10/23 17:46:33;;;;;;;13.67;12.20;;;13.10;30.40;;;;;;10306765;28;20620;-76
2021/10/23 17:51:37;;;;;;;11.77;9.57;;;13.00;30.40;;;;;;10313018;28;20231;-77
2021/10/23 17:56:42;;;;;;;12.20;10.33;;;12.90;30.30;;;;;;10308933;28;20246;-77
2021/10/23 18:01:45;;;;;;;11.17;9.30;;;12.80;30.20;;;;;;10308606;28;20227;-75
2021/10/23 18:06:49;;;;;;;7.33;6.63;;;12.70;30.10;;;;;;10314104;28;20322;-75
2021/10/23 18:11:53;;;;;;;7.23;6.53;;;12.60;30.00;;;;;;10311598;28;20231;-75
2021/10/23 18:17:00;;;;;;;9.37;7.53;;;12.50;30.00;;;;;;10311640;28;20243;-75
2021/10/23 18:22:04;;;;;;;5.90;3.37;;;12.40;30.10;;;;;;10306752;28;20227;-75
2021/10/23 18:27:08;;;;;;;3.43;2.20;;;12.30;30.30;;;;;;10306678;28;20263;-75
2021/10/23 18:32:12;;;;;;;4.33;3.70;;;12.20;30.20;;;;;;10310118;28;20223;-75
2021/10/23 18:37:15;;;;;;;8.33;5.70;;;12.10;30.10;;;;;;10307285;28;20257;-75
2021/10/23 18:42:20;;;;;;;8.03;7.27;;;11.90;30.40;;;;;;10310495;28;20230;-75
2021/10/23 18:47:24;;;;;;;8.73;7.93;;;11.80;30.30;;;;;;10313475;28;20289;-75
2021/10/23 18:52:27;;;;;;;8.13;7.33;;;11.70;30.20;;;;;;10309839;28;20237;-74
2021/10/23 18:57:32;;;;;;;8.47;7.63;;;11.50;30.40;;;;;;10313831;28;20241;-75
2021/10/23 19:02:36;;;;;;;8.00;7.20;;;11.30;30.80;;;;;;10312763;28;20235;-75
2021/10/23 19:07:40;;;;;;;12.13;10.37;;;11.20;30.80;;;;;;10301824;28;20624;-74
2021/10/23 19:12:44;;;;;;;8.00;7.20;;;11.20;30.70;;;;;;10308849;28;20610;-74
2021/10/23 19:17:49;;;;;;;12.23;9.97;;;11.10;30.80;;;;;;10309159;28;20654;-74
2021/10/23 19:22:52;;;;;;;10.40;9.37;;;11.00;30.70;;;;;;10308632;28;20240;-75
2021/10/23 19:27:57;;;;;;;13.67;12.10;;;11.00;30.70;;;;;;10305217;28;20612;-75
2021/10/23 19:33:00;;;;;;;12.90;11.53;;;10.90;30.90;;;;;;10308764;28;20231;-75
2021/10/23 19:38:03;;;;;;;12.33;10.70;;;10.80;30.80;;;;;;10302884;28;20238;-74
2021/10/23 19:43:08;;;;;;;13.97;11.13;;;10.80;31.00;;;;;;10305636;28;20778;-74
2021/10/23 19:48:11;;;;;;;8.87;7.97;;;10.70;30.80;;;;;;10301172;28;20252;-76
2021/10/23 19:53:15;;;;;;;9.90;8.90;;;10.60;30.80;;;;;;10303027;28;20239;-74
2021/10/23 19:58:19;;;;;;;11.20;9.73;;;10.50;30.80;;;;;;10301410;28;20231;-74
2021/10/23 20:03:23;;;;;;;11.37;9.90;;;10.40;31.00;;;;;;10302226;28;20281;-74
2021/10/23 20:08:26;;;;;;;9.40;7.67;;;10.30;30.90;;;;;;10311405;28;20334;-75
2021/10/23 20:13:31;;;;;;;7.97;6.70;;;10.20;30.90;;;;;;10306288;28;20230;-74
2021/10/23 20:18:35;;;;;;;8.07;6.27;;;10.00;31.10;;;;;;10310604;28;20235;-75
2021/10/23 20:23:39;;;;;;;6.73;6.03;;;10.00;31.30;;;;;;10296916;28;20243;-74
2021/10/23 20:28:44;;;;;;;6.90;6.20;;;9.90;32.20;;;;;;10308188;28;20230;-74
2021/10/23 20:33:47;;;;;;;7.17;6.00;;;9.80;32.30;;;;;;10307385;28;20806;-74
2021/10/23 20:38:51;;;;;;;7.37;6.27;;;9.70;32.20;;;;;;10310622;28;20250;-74
2021/10/23 20:43:57;;;;;;;7.73;6.30;;;9.70;32.40;;;;;;10306352;28;20231;-74
2021/10/23 20:49:01;;;;;;;7.00;6.30;;;9.70;32.40;;;;;;10308205;28;20231;-74
2021/10/23 20:54:05;;;;;;;6.70;6.00;;;9.60;32.20;;;;;;10303183;28;20235;-74
2021/10/23 20:59:09;;;;;;;6.70;6.10;;;9.50;32.40;;;;;;10320085;28;20326;-74
2021/10/23 21:04:12;;;;;;;7.73;5.50;;;9.50;32.80;;;;;;10329721;28;20227;-73
2021/10/23 21:09:16;;;;;;;6.87;6.00;;;9.40;32.60;;;;;;10318937;28;20239;-73
2021/10/23 21:14:21;;;;;;;5.90;5.13;;;9.40;32.70;;;;;;10320853;28;20226;-74
2021/10/23 21:19:25;;;;;;;12.63;10.40;;;9.40;32.90;;;;;;10314019;28;20247;-73
2021/10/23 21:24:28;;;;;;;9.83;8.97;;;9.40;32.60;;;;;;10328112;28;20235;-73
2021/10/23 21:29:33;;;;;;;9.40;8.53;;;9.30;32.50;;;;;;10328546;28;20782;-73
2021/10/23 21:34:37;;;;;;;11.07;9.87;;;9.30;32.70;;;;;;10329664;28;20533;-73
2021/10/23 21:39:40;;;;;;;11.33;9.17;;;9.20;32.40;;;;;;10328207;28;20262;-74
2021/10/23 21:44:45;;;;;;;8.73;7.47;;;9.20;32.50;;;;;;10326623;28;20859;-73
2021/10/23 21:49:48;;;;;;;6.57;5.97;;;9.10;32.40;;;;;;10320380;28;20950;-73
2021/10/23 21:55:03;;;;;;;6.70;5.80;;;9.00;32.50;;;;;;10227589;23;4227750;-72
2021/10/23 22:00:44;;;;;;;5.00;4.50;;;8.90;32.70;;;;;;10382941;28;20230;-74
2021/10/23 22:05:49;;;;;;;5.23;4.10;;;8.80;32.90;;;;;;10389493;28;20240;-76
2021/10/23 22:10:53;;;;;;;4.53;4.00;;;8.80;32.60;;;;;;10361994;28;20261;-77
2021/10/23 22:15:56;;;;;;;4.83;4.10;;;8.70;32.50;;;;;;10388110;28;20234;-74
2021/10/23 22:21:07;;;;;;;4.23;3.83;;;8.60;32.50;;;;;;10385988;28;20238;-76
2021/10/23 22:26:13;;;;;;;4.47;4.07;;;8.50;32.70;;;;;;10384643;28;20244;-77
2021/10/23 22:31:17;;;;;;;3.80;3.47;;;8.50;32.90;;;;;;10369622;28;20742;-74
2021/10/23 22:36:23;;;;;;;4.50;2.90;;;8.50;32.90;;;;;;10384533;28;21040;-74
2021/10/23 22:41:26;;;;;;;4.03;3.63;;;8.50;33.00;;;;;;10382260;28;20602;-74
2021/10/23 22:46:29;;;;;;;3.73;3.33;;;8.40;32.70;;;;;;10385511;28;20238;-74
2021/10/23 22:51:34;;;;;;;4.27;3.83;;;8.30;32.70;;;;;;10389219;28;20238;-73
2021/10/23 22:56:38;;;;;;;4.20;3.80;;;8.30;32.90;;;;;;10377267;28;20230;-74
2021/10/23 23:01:46;;;;;;;4.97;4.27;;;8.20;33.00;;;;;;10380772;28;20246;-74
2021/10/23 23:06:53;;;;;;;4.67;3.90;;;8.20;33.20;;;;;;10381309;28;20356;-77
2021/10/23 23:12:03;;;;;;;3.90;3.10;;;8.20;33.30;;;;;;10379146;28;21113;-72
2021/10/23 23:17:07;;;;;;;3.67;2.93;;;8.10;32.90;;;;;;10381908;28;20225;-73
2021/10/23 23:22:12;;;;;;;3.70;3.30;;;8.10;33.00;;;;;;10380060;28;20225;-72
2021/10/23 23:27:16;;;;;;;3.40;3.07;;;8.00;32.90;;;;;;10381259;28;20243;-72
2021/10/23 23:32:20;;;;;;;4.40;3.70;;;8.00;33.00;;;;;;10378215;28;20238;-72
2021/10/23 23:37:26;;;;;;;4.87;3.40;;;7.90;33.20;;;;;;10379391;28;20248;-72
2021/10/23 23:42:29;;;;;;;4.23;3.83;;;7.90;33.20;;;;;;10368988;28;20303;-72
2021/10/23 23:47:32;;;;;;;3.83;3.53;;;7.80;33.00;;;;;;10380811;28;20237;-72
2021/10/23 23:52:37;;;;;;;4.73;3.33;;;7.80;33.00;;;;;;10385118;28;20233;-76
2021/10/23 23:57:41;;;;;;;4.33;3.20;;;7.80;33.10;;;;;;10379241;28;20642;-76
